sensor_id;sensor_type;location;lat;lon;timestamp;temperature;humidity
25871;DHT22;13689;48.590;7.752;2023-07-09T00:00:46;27.60;48.30
25871;DHT22;13689;48.590;7.752;2023-07-09T00:03:12;27.60;48.30
25871;DHT22;13689;48.590;7.752;2023-07-09T00:05:38;27.60;48.40
25871;DHT22;13689;48.590;7.752;2023-07-09T00:08:04;27.60;48.30
25871;DHT22;13689;48.590;7.752;2023-07-09T00:10:30;27.60;48.40
25871;DHT22;13689;48.590;7.752;2023-07-09T00:12:56;27.60;48.30
25871;DHT22;13689;48.590;7.752;2023-07-09T00:15:21;27.60;48.40
25871;DHT22;13689;48.590;7.752;2023-07-09T00:17:47;27.60;48.40
25871;DHT22;13689;48.590;7.752;2023-07-09T00:20:16;27.60;48.40
25871;DHT22;13689;48.590;7.752;2023-07-09T00:22:44;27.60;48.60
25871;DHT22;13689;48.590;7.752;2023-07-09T00:25:20;27.60;48.60
25871;DHT22;13689;48.590;7.752;2023-07-09T00:27:46;27.60;48.70
25871;DHT22;13689;48.590;7.752;2023-07-09T00:30:19;27.50;48.80
25871;DHT22;13689;48.590;7.752;2023-07-09T00:32:45;27.50;48.90
25871;DHT22;13689;48.590;7.752;2023-07-09T00:35:14;27.40;48.90
25871;DHT22;13689;48.590;7.752;2023-07-09T00:37:41;27.40;49.10
25871;DHT22;13689;48.590;7.752;2023-07-09T00:40:19;27.30;49.10
25871;DHT22;13689;48.590;7.752;2023-07-09T00:42:48;27.30;49.20
25871;DHT22;13689;48.590;7.752;2023-07-09T00:45:21;27.30;49.30
25871;DHT22;13689;48.590;7.752;2023-07-09T00:50:24;27.20;49.30
25871;DHT22;13689;48.590;7.752;2023-07-09T00:53:00;27.20;49.40
25871;DHT22;13689;48.590;7.752;2023-07-09T00:55:34;27.20;49.40
25871;DHT22;13689;48.590;7.752;2023-07-09T00:58:05;27.10;49.40
25871;DHT22;13689;48.590;7.752;2023-07-09T01:00:38;27.10;49.70
25871;DHT22;13689;48.590;7.752;2023-07-09T01:03:15;27.10;49.80
25871;DHT22;13689;48.590;7.752;2023-07-09T01:05:42;27.00;49.80
25871;DHT22;13689;48.590;7.752;2023-07-09T01:08:09;27.00;49.80
25871;DHT22;13689;48.590;7.752;2023-07-09T01:10:35;27.00;49.90
25871;DHT22;13689;48.590;7.752;2023-07-09T01:13:01;27.10;50.00
25871;DHT22;13689;48.590;7.752;2023-07-09T01:15:27;27.10;50.00
25871;DHT22;13689;48.590;7.752;2023-07-09T01:17:53;27.00;49.90
25871;DHT22;13689;48.590;7.752;2023-07-09T01:20:20;27.00;50.10
25871;DHT22;13689;48.590;7.752;2023-07-09T01:22:50;27.00;50.10
25871;DHT22;13689;48.590;7.752;2023-07-09T01:25:20;26.90;50.20
25871;DHT22;13689;48.590;7.752;2023-07-09T01:27:47;26.90;50.20
25871;DHT22;13689;48.590;7.752;2023-07-09T01:30:20;26.80;50.20
25871;DHT22;13689;48.590;7.752;2023-07-09T01:32:50;26.90;50.30
25871;DHT22;13689;48.590;7.752;2023-07-09T01:35:18;26.80;50.30
25871;DHT22;13689;48.590;7.752;2023-07-09T01:37:46;26.90;50.30
25871;DHT22;13689;48.590;7.752;2023-07-09T01:40:14;26.80;50.30
25871;DHT22;13689;48.590;7.752;2023-07-09T01:42:41;26.80;50.30
25871;DHT22;13689;48.590;7.752;2023-07-09T01:45:07;26.80;50.40
25871;DHT22;13689;48.590;7.752;2023-07-09T01:47:36;26.80;50.40
25871;DHT22;13689;48.590;7.752;2023-07-09T01:50:02;26.80;50.50
25871;DHT22;13689;48.590;7.752;2023-07-09T01:52:29;26.80;50.50
25871;DHT22;13689;48.590;7.752;2023-07-09T01:54:57;26.70;50.60
25871;DHT22;13689;48.590;7.752;2023-07-09T01:57:25;26.70;50.80
25871;DHT22;13689;48.590;7.752;2023-07-09T01:59:59;26.60;51.40
25871;DHT22;13689;48.590;7.752;2023-07-09T02:02:25;26.60;51.00
25871;DHT22;13689;48.590;7.752;2023-07-09T02:04:53;26.60;51.00
25871;DHT22;13689;48.590;7.752;2023-07-09T02:07:19;26.50;51.00
25871;DHT22;13689;48.590;7.752;2023-07-09T02:09:45;26.60;51.00
25871;DHT22;13689;48.590;7.752;2023-07-09T02:12:12;26.60;51.60
25871;DHT22;13689;48.590;7.752;2023-07-09T02:14:39;26.60;51.00
25871;DHT22;13689;48.590;7.752;2023-07-09T02:17:05;26.60;51.00
25871;DHT22;13689;48.590;7.752;2023-07-09T02:19:31;26.60;51.10
25871;DHT22;13689;48.590;7.752;2023-07-09T02:21:57;26.50;51.10
25871;DHT22;13689;48.590;7.752;2023-07-09T02:24:23;26.50;51.20
25871;DHT22;13689;48.590;7.752;2023-07-09T02:26:50;26.50;51.20
25871;DHT22;13689;48.590;7.752;2023-07-09T02:29:16;26.40;51.20
25871;DHT22;13689;48.590;7.752;2023-07-09T02:31:43;26.40;51.30
25871;DHT22;13689;48.590;7.752;2023-07-09T02:34:09;26.40;51.40
25871;DHT22;13689;48.590;7.752;2023-07-09T02:36:34;26.30;51.40
25871;DHT22;13689;48.590;7.752;2023-07-09T02:39:00;26.30;51.50
25871;DHT22;13689;48.590;7.752;2023-07-09T02:41:26;26.20;51.60
25871;DHT22;13689;48.590;7.752;2023-07-09T02:43:51;26.20;52.40
25871;DHT22;13689;48.590;7.752;2023-07-09T02:46:17;26.20;52.00
25871;DHT22;13689;48.590;7.752;2023-07-09T02:48:43;26.20;52.00
25871;DHT22;13689;48.590;7.752;2023-07-09T02:51:08;26.20;52.10
25871;DHT22;13689;48.590;7.752;2023-07-09T02:53:34;26.20;52.30
25871;DHT22;13689;48.590;7.752;2023-07-09T02:56:00;26.10;52.30
25871;DHT22;13689;48.590;7.752;2023-07-09T02:58:26;26.00;52.40
25871;DHT22;13689;48.590;7.752;2023-07-09T03:00:51;26.00;52.60
25871;DHT22;13689;48.590;7.752;2023-07-09T03:03:19;26.00;52.70
25871;DHT22;13689;48.590;7.752;2023-07-09T03:05:45;25.90;52.80
25871;DHT22;13689;48.590;7.752;2023-07-09T03:08:11;25.90;52.90
25871;DHT22;13689;48.590;7.752;2023-07-09T03:10:37;25.90;53.00
25871;DHT22;13689;48.590;7.752;2023-07-09T03:13:03;26.00;53.10
25871;DHT22;13689;48.590;7.752;2023-07-09T03:15:28;25.90;53.00
25871;DHT22;13689;48.590;7.752;2023-07-09T03:17:54;25.90;53.10
25871;DHT22;13689;48.590;7.752;2023-07-09T03:20:19;25.90;53.20
25871;DHT22;13689;48.590;7.752;2023-07-09T03:22:45;25.90;53.30
25871;DHT22;13689;48.590;7.752;2023-07-09T03:25:10;25.90;53.40
25871;DHT22;13689;48.590;7.752;2023-07-09T03:27:36;25.80;53.50
25871;DHT22;13689;48.590;7.752;2023-07-09T03:30:02;25.80;53.60
25871;DHT22;13689;48.590;7.752;2023-07-09T03:32:27;25.70;53.70
25871;DHT22;13689;48.590;7.752;2023-07-09T03:34:53;25.70;53.90
25871;DHT22;13689;48.590;7.752;2023-07-09T03:37:19;25.70;53.90
25871;DHT22;13689;48.590;7.752;2023-07-09T03:39:47;25.70;54.10
25871;DHT22;13689;48.590;7.752;2023-07-09T03:42:13;25.60;54.20
25871;DHT22;13689;48.590;7.752;2023-07-09T03:44:39;25.60;54.40
25871;DHT22;13689;48.590;7.752;2023-07-09T03:47:06;25.60;54.50
25871;DHT22;13689;48.590;7.752;2023-07-09T03:49:32;25.60;54.60
25871;DHT22;13689;48.590;7.752;2023-07-09T03:51:58;25.60;54.70
25871;DHT22;13689;48.590;7.752;2023-07-09T03:54:24;25.60;54.70
25871;DHT22;13689;48.590;7.752;2023-07-09T03:56:50;25.60;54.80
25871;DHT22;13689;48.590;7.752;2023-07-09T03:59:15;25.60;54.90
25871;DHT22;13689;48.590;7.752;2023-07-09T04:01:41;25.50;55.00
25871;DHT22;13689;48.590;7.752;2023-07-09T04:04:12;25.60;55.10
25871;DHT22;13689;48.590;7.752;2023-07-09T04:06:38;25.60;55.10
25871;DHT22;13689;48.590;7.752;2023-07-09T04:09:04;25.70;55.10
25871;DHT22;13689;48.590;7.752;2023-07-09T04:11:29;25.60;55.00
25871;DHT22;13689;48.590;7.752;2023-07-09T04:13:55;25.60;55.00
25871;DHT22;13689;48.590;7.752;2023-07-09T04:16:20;25.70;55.00
25871;DHT22;13689;48.590;7.752;2023-07-09T04:18:46;25.60;55.00
25871;DHT22;13689;48.590;7.752;2023-07-09T04:21:12;25.70;55.00
25871;DHT22;13689;48.590;7.752;2023-07-09T04:23:37;25.70;55.00
25871;DHT22;13689;48.590;7.752;2023-07-09T04:26:03;25.70;55.00
25871;DHT22;13689;48.590;7.752;2023-07-09T04:28:30;25.70;54.90
25871;DHT22;13689;48.590;7.752;2023-07-09T04:30:56;25.70;54.90
25871;DHT22;13689;48.590;7.752;2023-07-09T04:33:22;25.70;54.80
25871;DHT22;13689;48.590;7.752;2023-07-09T04:35:48;25.70;54.80
25871;DHT22;13689;48.590;7.752;2023-07-09T04:38:15;25.70;54.80
25871;DHT22;13689;48.590;7.752;2023-07-09T04:40:41;25.70;54.90
25871;DHT22;13689;48.590;7.752;2023-07-09T04:43:07;25.70;54.90
25871;DHT22;13689;48.590;7.752;2023-07-09T04:45:33;25.70;55.00
25871;DHT22;13689;48.590;7.752;2023-07-09T04:47:58;25.70;55.00
25871;DHT22;13689;48.590;7.752;2023-07-09T04:50:24;25.70;55.00
25871;DHT22;13689;48.590;7.752;2023-07-09T04:52:50;25.70;55.00
25871;DHT22;13689;48.590;7.752;2023-07-09T04:55:17;25.70;55.00
25871;DHT22;13689;48.590;7.752;2023-07-09T04:57:44;25.70;54.90
25871;DHT22;13689;48.590;7.752;2023-07-09T05:00:11;25.80;54.90
25871;DHT22;13689;48.590;7.752;2023-07-09T05:02:36;25.80;54.80
25871;DHT22;13689;48.590;7.752;2023-07-09T05:05:02;25.90;54.90
25871;DHT22;13689;48.590;7.752;2023-07-09T05:07:28;25.80;54.80
25871;DHT22;13689;48.590;7.752;2023-07-09T05:09:54;25.80;55.50
25871;DHT22;13689;48.590;7.752;2023-07-09T05:12:19;25.80;54.90
25871;DHT22;13689;48.590;7.752;2023-07-09T05:14:46;25.80;54.90
25871;DHT22;13689;48.590;7.752;2023-07-09T05:17:11;25.90;54.90
25871;DHT22;13689;48.590;7.752;2023-07-09T05:19:38;26.00;54.80
25871;DHT22;13689;48.590;7.752;2023-07-09T05:22:04;26.00;54.70
25871;DHT22;13689;48.590;7.752;2023-07-09T05:24:30;26.10;54.70
25871;DHT22;13689;48.590;7.752;2023-07-09T05:26:55;26.20;54.60
25871;DHT22;13689;48.590;7.752;2023-07-09T05:29:27;26.30;54.40
25871;DHT22;13689;48.590;7.752;2023-07-09T05:31:53;26.50;54.20
25871;DHT22;13689;48.590;7.752;2023-07-09T05:34:18;26.60;53.90
25871;DHT22;13689;48.590;7.752;2023-07-09T05:36:44;26.80;53.70
25871;DHT22;13689;48.590;7.752;2023-07-09T05:39:10;27.00;53.40
25871;DHT22;13689;48.590;7.752;2023-07-09T05:41:36;27.20;53.10
25871;DHT22;13689;48.590;7.752;2023-07-09T05:44:01;27.30;52.90
25871;DHT22;13689;48.590;7.752;2023-07-09T05:46:27;27.40;52.60
25871;DHT22;13689;48.590;7.752;2023-07-09T05:48:53;27.50;52.40
25871;DHT22;13689;48.590;7.752;2023-07-09T05:51:18;27.60;52.20
25871;DHT22;13689;48.590;7.752;2023-07-09T05:53:46;27.70;52.10
25871;DHT22;13689;48.590;7.752;2023-07-09T05:56:15;27.80;51.90
25871;DHT22;13689;48.590;7.752;2023-07-09T05:58:40;27.90;51.60
25871;DHT22;13689;48.590;7.752;2023-07-09T06:01:06;28.00;51.50
25871;DHT22;13689;48.590;7.752;2023-07-09T06:03:32;28.10;51.30
25871;DHT22;13689;48.590;7.752;2023-07-09T06:05:58;28.20;51.10
25871;DHT22;13689;48.590;7.752;2023-07-09T06:08:25;28.30;50.80
25871;DHT22;13689;48.590;7.752;2023-07-09T06:13:17;28.40;50.30
25871;DHT22;13689;48.590;7.752;2023-07-09T06:15:43;28.40;50.30
25871;DHT22;13689;48.590;7.752;2023-07-09T06:18:09;28.50;50.20
25871;DHT22;13689;48.590;7.752;2023-07-09T06:20:35;28.60;49.90
25871;DHT22;13689;48.590;7.752;2023-07-09T06:23:00;28.70;49.80
25871;DHT22;13689;48.590;7.752;2023-07-09T06:25:26;28.70;49.60
25871;DHT22;13689;48.590;7.752;2023-07-09T06:27:52;28.70;49.70
25871;DHT22;13689;48.590;7.752;2023-07-09T06:30:17;28.70;49.70
25871;DHT22;13689;48.590;7.752;2023-07-09T06:32:45;28.80;49.60
25871;DHT22;13689;48.590;7.752;2023-07-09T06:35:13;29.00;49.40
25871;DHT22;13689;48.590;7.752;2023-07-09T06:37:39;29.00;49.20
25871;DHT22;13689;48.590;7.752;2023-07-09T06:40:05;29.00;49.10
25871;DHT22;13689;48.590;7.752;2023-07-09T06:42:33;29.00;49.10
25871;DHT22;13689;48.590;7.752;2023-07-09T06:44:59;29.20;49.10
25871;DHT22;13689;48.590;7.752;2023-07-09T06:47:24;29.40;48.90
25871;DHT22;13689;48.590;7.752;2023-07-09T06:49:50;29.60;48.80
25871;DHT22;13689;48.590;7.752;2023-07-09T06:52:16;29.70;48.40
25871;DHT22;13689;48.590;7.752;2023-07-09T06:54:41;29.80;48.10
25871;DHT22;13689;48.590;7.752;2023-07-09T06:57:07;29.80;48.10
25871;DHT22;13689;48.590;7.752;2023-07-09T06:59:33;29.80;48.00
25871;DHT22;13689;48.590;7.752;2023-07-09T07:01:58;29.90;48.00
25871;DHT22;13689;48.590;7.752;2023-07-09T07:04:25;30.10;47.80
25871;DHT22;13689;48.590;7.752;2023-07-09T07:06:52;30.20;47.60
25871;DHT22;13689;48.590;7.752;2023-07-09T07:09:21;30.30;47.30
25871;DHT22;13689;48.590;7.752;2023-07-09T07:11:46;30.40;47.00
25871;DHT22;13689;48.590;7.752;2023-07-09T07:14:19;30.50;46.80
25871;DHT22;13689;48.590;7.752;2023-07-09T07:16:47;30.50;46.60
25871;DHT22;13689;48.590;7.752;2023-07-09T07:19:13;30.60;46.40
25871;DHT22;13689;48.590;7.752;2023-07-09T07:21:39;30.70;46.20
25871;DHT22;13689;48.590;7.752;2023-07-09T07:24:07;30.80;46.00
25871;DHT22;13689;48.590;7.752;2023-07-09T07:26:33;30.90;45.60
25871;DHT22;13689;48.590;7.752;2023-07-09T07:28:59;31.00;45.40
25871;DHT22;13689;48.590;7.752;2023-07-09T07:31:24;31.20;45.10
25871;DHT22;13689;48.590;7.752;2023-07-09T07:33:50;31.30;44.90
25871;DHT22;13689;48.590;7.752;2023-07-09T07:36:16;31.40;44.60
25871;DHT22;13689;48.590;7.752;2023-07-09T07:38:42;31.50;44.40
25871;DHT22;13689;48.590;7.752;2023-07-09T07:41:12;31.60;44.20
25871;DHT22;13689;48.590;7.752;2023-07-09T07:43:37;31.70;44.10
25871;DHT22;13689;48.590;7.752;2023-07-09T07:46:03;31.80;43.90
25871;DHT22;13689;48.590;7.752;2023-07-09T07:48:28;31.90;43.80
25871;DHT22;13689;48.590;7.752;2023-07-09T07:51:02;32.10;43.70
25871;DHT22;13689;48.590;7.752;2023-07-09T07:53:30;32.20;43.30
25871;DHT22;13689;48.590;7.752;2023-07-09T07:55:59;32.20;43.30
25871;DHT22;13689;48.590;7.752;2023-07-09T07:58:27;32.20;43.20
25871;DHT22;13689;48.590;7.752;2023-07-09T08:00:57;32.40;43.00
25871;DHT22;13689;48.590;7.752;2023-07-09T08:03:23;32.60;43.40
25871;DHT22;13689;48.590;7.752;2023-07-09T08:05:52;32.80;42.50
25871;DHT22;13689;48.590;7.752;2023-07-09T08:08:18;32.90;42.20
25871;DHT22;13689;48.590;7.752;2023-07-09T08:10:44;33.10;42.10
25871;DHT22;13689;48.590;7.752;2023-07-09T08:13:13;33.10;41.90
25871;DHT22;13689;48.590;7.752;2023-07-09T08:15:38;33.40;41.80
25871;DHT22;13689;48.590;7.752;2023-07-09T08:18:04;33.60;41.50
25871;DHT22;13689;48.590;7.752;2023-07-09T08:20:32;33.80;41.20
25871;DHT22;13689;48.590;7.752;2023-07-09T08:22:58;34.00;41.50
25871;DHT22;13689;48.590;7.752;2023-07-09T08:25:24;34.20;40.80
25871;DHT22;13689;48.590;7.752;2023-07-09T08:27:53;34.30;40.40
25871;DHT22;13689;48.590;7.752;2023-07-09T08:30:24;34.50;40.00
25871;DHT22;13689;48.590;7.752;2023-07-09T08:32:50;34.60;39.40
25871;DHT22;13689;48.590;7.752;2023-07-09T08:35:16;34.60;39.10
25871;DHT22;13689;48.590;7.752;2023-07-09T08:37:41;34.80;38.90
25871;DHT22;13689;48.590;7.752;2023-07-09T08:40:12;35.00;38.70
25871;DHT22;13689;48.590;7.752;2023-07-09T08:42:44;35.30;38.20
25871;DHT22;13689;48.590;7.752;2023-07-09T08:45:32;35.70;37.70
25871;DHT22;13689;48.590;7.752;2023-07-09T08:50:53;37.10;36.10
25871;DHT22;13689;48.590;7.752;2023-07-09T08:53:25;37.60;35.70
25871;DHT22;13689;48.590;7.752;2023-07-09T08:55:54;38.00;35.00
25871;DHT22;13689;48.590;7.752;2023-07-09T08:58:28;38.30;34.40
25871;DHT22;13689;48.590;7.752;2023-07-09T09:00:55;38.60;33.70
25871;DHT22;13689;48.590;7.752;2023-07-09T09:03:29;38.80;33.20
25871;DHT22;13689;48.590;7.752;2023-07-09T09:05:57;39.20;32.50
25871;DHT22;13689;48.590;7.752;2023-07-09T09:08:44;39.60;31.90
25871;DHT22;13689;48.590;7.752;2023-07-09T09:11:29;40.00;30.90
25871;DHT22;13689;48.590;7.752;2023-07-09T09:13:57;40.40;30.30
25871;DHT22;13689;48.590;7.752;2023-07-09T09:16:37;40.80;30.00
25871;DHT22;13689;48.590;7.752;2023-07-09T09:19:15;41.10;29.70
25871;DHT22;13689;48.590;7.752;2023-07-09T09:21:43;40.90;28.90
25871;DHT22;13689;48.590;7.752;2023-07-09T09:24:22;40.70;29.00
25871;DHT22;13689;48.590;7.752;2023-07-09T09:26:50;40.30;28.90
25871;DHT22;13689;48.590;7.752;2023-07-09T09:29:18;40.10;29.10
25871;DHT22;13689;48.590;7.752;2023-07-09T09:31:48;40.20;29.20
25871;DHT22;13689;48.590;7.752;2023-07-09T09:34:20;40.30;29.10
25871;DHT22;13689;48.590;7.752;2023-07-09T09:36:47;40.60;28.70
25871;DHT22;13689;48.590;7.752;2023-07-09T09:39:16;40.60;28.50
25871;DHT22;13689;48.590;7.752;2023-07-09T09:41:43;40.70;28.50
25871;DHT22;13689;48.590;7.752;2023-07-09T09:44:19;40.80;28.30
25871;DHT22;13689;48.590;7.752;2023-07-09T09:46:45;40.70;28.60
25871;DHT22;13689;48.590;7.752;2023-07-09T09:49:13;40.40;28.40
25871;DHT22;13689;48.590;7.752;2023-07-09T09:51:40;40.20;28.70
25871;DHT22;13689;48.590;7.752;2023-07-09T09:54:22;39.90;28.70
25871;DHT22;13689;48.590;7.752;2023-07-09T09:56:50;39.90;28.90
25871;DHT22;13689;48.590;7.752;2023-07-09T09:59:21;40.20;28.80
25871;DHT22;13689;48.590;7.752;2023-07-09T10:02:00;40.30;28.60
25871;DHT22;13689;48.590;7.752;2023-07-09T10:04:27;40.50;28.10
25871;DHT22;13689;48.590;7.752;2023-07-09T10:06:56;40.30;28.30
25871;DHT22;13689;48.590;7.752;2023-07-09T10:09:43;40.30;28.50
25871;DHT22;13689;48.590;7.752;2023-07-09T10:12:31;40.50;28.30
25871;DHT22;13689;48.590;7.752;2023-07-09T10:17:53;40.40;27.90
25871;DHT22;13689;48.590;7.752;2023-07-09T10:39:35;43.00;26.00
25871;DHT22;13689;48.590;7.752;2023-07-09T10:42:02;43.10;25.60
25871;DHT22;13689;48.590;7.752;2023-07-09T10:44:30;43.00;25.30
25871;DHT22;13689;48.590;7.752;2023-07-09T10:47:05;43.00;25.20
25871;DHT22;13689;48.590;7.752;2023-07-09T10:49:38;42.60;25.10
25871;DHT22;13689;48.590;7.752;2023-07-09T10:52:18;42.30;25.10
25871;DHT22;13689;48.590;7.752;2023-07-09T10:54:53;41.80;25.10
25871;DHT22;13689;48.590;7.752;2023-07-09T10:57:46;40.90;24.80
25871;DHT22;13689;48.590;7.752;2023-07-09T11:00:17;39.60;25.30
25871;DHT22;13689;48.590;7.752;2023-07-09T11:02:44;38.90;25.80
25871;DHT22;13689;48.590;7.752;2023-07-09T11:05:11;38.40;26.10
25871;DHT22;13689;48.590;7.752;2023-07-09T11:10:31;38.10;26.70
25871;DHT22;13689;48.590;7.752;2023-07-09T11:13:10;38.10;26.70
25871;DHT22;13689;48.590;7.752;2023-07-09T11:15:40;38.10;26.50
25871;DHT22;13689;48.590;7.752;2023-07-09T11:18:30;37.80;26.60
25871;DHT22;13689;48.590;7.752;2023-07-09T11:21:15;37.60;26.80
25871;DHT22;13689;48.590;7.752;2023-07-09T11:23:51;37.50;27.00
25871;DHT22;13689;48.590;7.752;2023-07-09T11:26:31;37.50;27.10
25871;DHT22;13689;48.590;7.752;2023-07-09T11:31:43;37.50;27.30
25871;DHT22;13689;48.590;7.752;2023-07-09T11:34:20;37.50;27.40
25871;DHT22;13689;48.590;7.752;2023-07-09T11:39:27;37.40;27.50
25871;DHT22;13689;48.590;7.752;2023-07-09T11:41:54;37.40;27.60
25871;DHT22;13689;48.590;7.752;2023-07-09T11:44:25;37.30;27.60
25871;DHT22;13689;48.590;7.752;2023-07-09T11:47:19;37.30;27.80
25871;DHT22;13689;48.590;7.752;2023-07-09T11:55:48;37.20;28.00
25871;DHT22;13689;48.590;7.752;2023-07-09T11:58:17;37.20;28.20
25871;DHT22;13689;48.590;7.752;2023-07-09T12:00:44;37.20;28.20
25871;DHT22;13689;48.590;7.752;2023-07-09T12:06:23;37.20;28.30
25871;DHT22;13689;48.590;7.752;2023-07-09T12:08:50;37.10;28.10
25871;DHT22;13689;48.590;7.752;2023-07-09T12:11:36;37.10;28.20
25871;DHT22;13689;48.590;7.752;2023-07-09T12:14:13;37.00;28.30
25871;DHT22;13689;48.590;7.752;2023-07-09T12:16:45;36.90;28.40
25871;DHT22;13689;48.590;7.752;2023-07-09T12:19:13;36.80;28.40
25871;DHT22;13689;48.590;7.752;2023-07-09T12:21:44;36.80;28.50
25871;DHT22;13689;48.590;7.752;2023-07-09T12:24:22;36.70;28.60
25871;DHT22;13689;48.590;7.752;2023-07-09T12:26:53;36.70;28.80
25871;DHT22;13689;48.590;7.752;2023-07-09T12:29:19;36.60;28.90
25871;DHT22;13689;48.590;7.752;2023-07-09T12:31:45;36.50;28.90
25871;DHT22;13689;48.590;7.752;2023-07-09T12:34:13;36.40;28.80
25871;DHT22;13689;48.590;7.752;2023-07-09T12:36:45;36.40;28.70
25871;DHT22;13689;48.590;7.752;2023-07-09T12:39:12;36.40;28.70
25871;DHT22;13689;48.590;7.752;2023-07-09T12:41:40;36.30;28.80
25871;DHT22;13689;48.590;7.752;2023-07-09T12:44:19;36.20;29.00
25871;DHT22;13689;48.590;7.752;2023-07-09T12:46:46;36.20;29.20
25871;DHT22;13689;48.590;7.752;2023-07-09T12:49:24;36.20;29.30
25871;DHT22;13689;48.590;7.752;2023-07-09T12:51:50;36.30;29.30
25871;DHT22;13689;48.590;7.752;2023-07-09T12:54:18;36.30;29.20
25871;DHT22;13689;48.590;7.752;2023-07-09T12:56:44;36.30;29.00
25871;DHT22;13689;48.590;7.752;2023-07-09T12:59:23;36.30;28.80
25871;DHT22;13689;48.590;7.752;2023-07-09T13:04:36;36.40;28.60
25871;DHT22;13689;48.590;7.752;2023-07-09T13:07:02;36.60;28.60
25871;DHT22;13689;48.590;7.752;2023-07-09T13:09:28;36.60;28.70
25871;DHT22;13689;48.590;7.752;2023-07-09T13:11:55;36.60;28.80
25871;DHT22;13689;48.590;7.752;2023-07-09T13:14:26;36.70;28.50
25871;DHT22;13689;48.590;7.752;2023-07-09T13:16:52;36.70;27.90
25871;DHT22;13689;48.590;7.752;2023-07-09T13:19:19;36.70;27.70
25871;DHT22;13689;48.590;7.752;2023-07-09T13:21:45;36.60;27.70
25871;DHT22;13689;48.590;7.752;2023-07-09T13:24:19;36.50;27.80
25871;DHT22;13689;48.590;7.752;2023-07-09T13:26:46;36.60;27.90
25871;DHT22;13689;48.590;7.752;2023-07-09T13:29:17;36.50;27.90
25871;DHT22;13689;48.590;7.752;2023-07-09T13:31:46;36.50;27.90
25871;DHT22;13689;48.590;7.752;2023-07-09T13:34:27;36.40;27.80
25871;DHT22;13689;48.590;7.752;2023-07-09T13:36:54;36.40;27.70
25871;DHT22;13689;48.590;7.752;2023-07-09T13:39:22;36.40;27.60
25871;DHT22;13689;48.590;7.752;2023-07-09T13:41:51;36.40;27.50
25871;DHT22;13689;48.590;7.752;2023-07-09T13:44:23;36.40;27.60
25871;DHT22;13689;48.590;7.752;2023-07-09T13:46:51;36.30;27.70
25871;DHT22;13689;48.590;7.752;2023-07-09T13:49:21;36.30;27.80
25871;DHT22;13689;48.590;7.752;2023-07-09T13:51:50;36.30;28.00
25871;DHT22;13689;48.590;7.752;2023-07-09T13:54:22;36.30;28.00
25871;DHT22;13689;48.590;7.752;2023-07-09T13:56:49;36.40;28.00
25871;DHT22;13689;48.590;7.752;2023-07-09T13:59:19;36.40;28.00
25871;DHT22;13689;48.590;7.752;2023-07-09T14:01:45;36.50;28.30
25871;DHT22;13689;48.590;7.752;2023-07-09T14:04:13;36.60;28.50
25871;DHT22;13689;48.590;7.752;2023-07-09T14:06:40;36.60;28.70
25871;DHT22;13689;48.590;7.752;2023-07-09T14:09:07;36.70;28.90
25871;DHT22;13689;48.590;7.752;2023-07-09T14:11:34;36.70;28.90
25871;DHT22;13689;48.590;7.752;2023-07-09T14:14:00;36.70;29.10
25871;DHT22;13689;48.590;7.752;2023-07-09T14:16:25;36.70;29.30
25871;DHT22;13689;48.590;7.752;2023-07-09T14:18:51;36.60;29.50
25871;DHT22;13689;48.590;7.752;2023-07-09T14:21:26;36.50;29.60
25871;DHT22;13689;48.590;7.752;2023-07-09T14:23:53;36.40;29.80
25871;DHT22;13689;48.590;7.752;2023-07-09T14:26:19;36.30;30.00
25871;DHT22;13689;48.590;7.752;2023-07-09T14:28:45;36.10;30.20
25871;DHT22;13689;48.590;7.752;2023-07-09T14:31:23;35.90;30.40
25871;DHT22;13689;48.590;7.752;2023-07-09T14:33:50;35.80;30.70
25871;DHT22;13689;48.590;7.752;2023-07-09T14:36:18;35.70;30.90
25871;DHT22;13689;48.590;7.752;2023-07-09T14:38:43;35.60;31.00
25871;DHT22;13689;48.590;7.752;2023-07-09T14:41:20;35.50;31.20
25871;DHT22;13689;48.590;7.752;2023-07-09T14:43:46;35.50;31.50
25871;DHT22;13689;48.590;7.752;2023-07-09T14:46:12;35.40;31.50
25871;DHT22;13689;48.590;7.752;2023-07-09T14:48:37;35.30;31.50
25871;DHT22;13689;48.590;7.752;2023-07-09T14:51:13;35.20;31.50
25871;DHT22;13689;48.590;7.752;2023-07-09T14:53:40;35.10;31.60
25871;DHT22;13689;48.590;7.752;2023-07-09T14:56:05;35.10;31.80
25871;DHT22;13689;48.590;7.752;2023-07-09T14:58:31;35.00;31.70
25871;DHT22;13689;48.590;7.752;2023-07-09T15:00:56;35.00;31.90
25871;DHT22;13689;48.590;7.752;2023-07-09T15:03:24;34.90;32.00
25871;DHT22;13689;48.590;7.752;2023-07-09T15:05:52;34.90;32.00
25871;DHT22;13689;48.590;7.752;2023-07-09T15:08:23;34.80;32.10
25871;DHT22;13689;48.590;7.752;2023-07-09T15:10:50;34.80;32.10
25871;DHT22;13689;48.590;7.752;2023-07-09T15:13:39;34.70;32.20
25871;DHT22;13689;48.590;7.752;2023-07-09T15:16:04;34.70;32.20
25871;DHT22;13689;48.590;7.752;2023-07-09T15:18:30;34.70;32.30
25871;DHT22;13689;48.590;7.752;2023-07-09T15:21:00;34.60;32.30
25871;DHT22;13689;48.590;7.752;2023-07-09T15:23:28;34.60;31.90
25871;DHT22;13689;48.590;7.752;2023-07-09T15:25:55;34.50;31.80
25871;DHT22;13689;48.590;7.752;2023-07-09T15:28:21;34.50;31.70
25871;DHT22;13689;48.590;7.752;2023-07-09T15:30:47;34.50;31.60
25871;DHT22;13689;48.590;7.752;2023-07-09T15:33:18;34.60;31.30
25871;DHT22;13689;48.590;7.752;2023-07-09T15:35:46;34.70;31.00
25871;DHT22;13689;48.590;7.752;2023-07-09T15:38:30;34.80;30.70
25871;DHT22;13689;48.590;7.752;2023-07-09T15:40:56;35.10;30.50
25871;DHT22;13689;48.590;7.752;2023-07-09T15:43:22;35.30;30.30
25871;DHT22;13689;48.590;7.752;2023-07-09T15:45:50;35.40;30.10
25871;DHT22;13689;48.590;7.752;2023-07-09T15:48:27;35.60;30.00
25871;DHT22;13689;48.590;7.752;2023-07-09T15:50:55;35.80;29.80
25871;DHT22;13689;48.590;7.752;2023-07-09T15:53:21;35.90;29.80
25871;DHT22;13689;48.590;7.752;2023-07-09T15:55:47;35.90;29.70
25871;DHT22;13689;48.590;7.752;2023-07-09T15:58:21;35.90;29.70
25871;DHT22;13689;48.590;7.752;2023-07-09T16:00:49;35.70;29.80
25871;DHT22;13689;48.590;7.752;2023-07-09T16:03:15;35.70;29.90
25871;DHT22;13689;48.590;7.752;2023-07-09T16:05:41;35.60;29.80
25871;DHT22;13689;48.590;7.752;2023-07-09T16:08:06;35.60;29.90
25871;DHT22;13689;48.590;7.752;2023-07-09T16:10:33;35.50;30.00
25871;DHT22;13689;48.590;7.752;2023-07-09T16:12:59;35.40;30.20
25871;DHT22;13689;48.590;7.752;2023-07-09T16:15:25;35.40;30.40
25871;DHT22;13689;48.590;7.752;2023-07-09T16:17:51;35.30;30.50
25871;DHT22;13689;48.590;7.752;2023-07-09T16:20:21;35.20;30.50
25871;DHT22;13689;48.590;7.752;2023-07-09T16:22:52;35.20;30.50
25871;DHT22;13689;48.590;7.752;2023-07-09T16:25:30;35.20;30.40
25871;DHT22;13689;48.590;7.752;2023-07-09T16:27:57;35.10;30.50